Time;durP1;ratioP1;P1;durP2;ratioP2;P2;SDS_P1;SDS_P2;PMS_P1;PMS_P2;Temp;Humidity;BMP_temperature;BMP_pressure;BME280_temperature;BME280_humidity;BME280_pressure;Samples;Min_cycle;Max_cycle;Signal;HPM_P1;HPM_P2
2023/04/10 00:00:31;;;;;;;11.40;5.07;;;9.90;99.90;;;;;;5034984;28;20529;-73
2023/04/10 00:03:00;;;;;;;10.93;4.95;;;10.00;99.90;;;;;;5047254;28;20731;-74
2023/04/10 00:05:26;;;;;;;9.88;4.65;;;9.90;99.90;;;;;;5032692;28;20178;-73
2023/04/10 00:07:52;;;;;;;9.50;4.88;;;9.90;99.90;;;;;;5035893;28;20550;-73
2023/04/10 00:10:18;;;;;;;9.02;4.63;;;9.90;99.90;;;;;;5031195;28;20041;-73
2023/04/10 00:12:44;;;;;;;10.82;4.95;;;9.80;99.90;;;;;;5047540;28;20368;-74
2023/04/10 00:15:10;;;;;;;9.50;4.53;;;9.80;99.90;;;;;;5047212;28;20040;-73
2023/04/10 00:17:35;;;;;;;11.00;5.00;;;9.80;99.90;;;;;;5047259;28;20421;-74
2023/04/10 00:20:01;;;;;;;10.77;5.45;;;9.90;99.90;;;;;;5047024;28;20029;-73
2023/04/10 00:22:26;;;;;;;10.05;4.60;;;9.80;99.90;;;;;;5047662;28;20127;-73
2023/04/10 00:24:52;;;;;;;11.95;5.07;;;9.80;99.90;;;;;;5030869;28;20577;-73
2023/04/10 00:27:18;;;;;;;9.65;4.63;;;9.80;99.90;;;;;;5047489;28;20487;-73
2023/04/10 00:29:43;;;;;;;9.43;4.72;;;9.80;99.90;;;;;;5031792;28;20083;-73
2023/04/10 00:32:09;;;;;;;10.65;5.22;;;9.70;99.90;;;;;;5045935;28;20037;-73
2023/04/10 00:34:35;;;;;;;11.43;4.53;;;9.70;99.90;;;;;;5031924;28;20114;-74
2023/04/10 00:37:00;;;;;;;9.45;4.60;;;9.70;99.90;;;;;;5047872;28;20138;-73
2023/04/10 00:39:26;;;;;;;11.02;4.85;;;9.70;99.90;;;;;;5050864;28;20761;-72
2023/04/10 00:41:51;;;;;;;8.70;4.53;;;9.70;99.90;;;;;;5058650;28;20093;-72
2023/04/10 00:44:17;;;;;;;10.55;4.55;;;9.60;99.90;;;;;;5052945;28;20029;-73
2023/04/10 00:46:43;;;;;;;11.00;4.60;;;9.60;99.90;;;;;;5047616;28;20486;-73
2023/04/10 00:49:08;;;;;;;8.15;4.10;;;9.60;99.90;;;;;;5038491;28;20052;-73
2023/04/10 00:51:35;;;;;;;10.82;4.75;;;9.60;99.90;;;;;;5032577;28;20406;-73
2023/04/10 00:54:01;;;;;;;9.27;4.65;;;9.60;99.90;;;;;;5033983;28;20040;-73
2023/04/10 00:56:30;;;;;;;10.95;4.75;;;9.60;99.90;;;;;;5032376;28;20479;-72
2023/04/10 00:58:55;;;;;;;7.45;3.78;;;9.60;99.90;;;;;;5031041;28;20041;-73
2023/04/10 01:01:21;;;;;;;9.40;4.22;;;9.60;99.90;;;;;;5032371;28;20091;-72
2023/04/10 01:03:47;;;;;;;10.13;4.50;;;9.60;99.90;;;;;;5046364;28;20098;-73
2023/04/10 01:06:40;;;;;;;8.63;4.25;;;9.60;99.90;;;;;;5045894;28;20075;-73
2023/04/10 01:09:27;;;;;;;11.63;4.60;;;9.50;99.90;;;;;;5044853;28;20040;-73
2023/04/10 01:11:58;;;;;;;7.05;4.07;;;9.50;99.90;;;;;;5029058;28;20064;-73
2023/04/10 01:15:00;;;;;;;9.30;4.03;;;9.50;99.90;;;;;;5045887;28;20608;-73
2023/04/10 01:17:36;;;;;;;9.23;4.00;;;9.40;99.90;;;;;;4952418;28;20052;-71
2023/04/10 01:20:01;;;;;;;8.27;4.10;;;9.40;99.90;;;;;;5033351;28;20106;-73
2023/04/10 01:23:17;;;;;;;9.95;4.20;;;9.40;99.90;;;;;;5047443;28;20452;-73
2023/04/10 01:26:04;;;;;;;9.38;4.00;;;9.40;99.90;;;;;;5009061;28;20029;-73
2023/04/10 01:28:41;;;;;;;7.95;3.55;;;9.50;99.90;;;;;;5032974;28;20119;-72
2023/04/10 01:31:10;;;;;;;8.60;3.63;;;9.50;99.90;;;;;;5045626;28;20400;-73
2023/04/10 01:33:48;;;;;;;7.45;3.22;;;9.50;99.90;;;;;;5046070;28;20025;-73
2023/04/10 01:36:21;;;;;;;8.07;3.78;;;9.50;99.90;;;;;;5039594;28;20040;-73
2023/04/10 01:38:49;;;;;;;8.23;3.40;;;9.50;99.90;;;;;;5053817;28;20747;-73
2023/04/10 01:41:17;;;;;;;7.53;3.72;;;9.50;99.90;;;;;;5034848;28;20033;-72
2023/04/10 01:43:46;;;;;;;7.85;3.15;;;9.50;99.90;;;;;;5042127;28;20116;-73
2023/04/10 01:46:11;;;;;;;8.23;3.95;;;9.50;99.90;;;;;;5046067;28;20041;-72
2023/04/10 01:48:37;;;;;;;7.75;3.22;;;9.50;99.90;;;;;;5032673;28;20056;-73
2023/04/10 01:51:04;;;;;;;6.85;2.97;;;9.50;99.90;;;;;;5030891;28;20032;-73
2023/04/10 01:53:31;;;;;;;6.78;3.38;;;9.50;99.90;;;;;;5045949;28;20494;-70
2023/04/10 01:55:57;;;;;;;9.60;3.33;;;9.60;99.90;;;;;;5031551;28;20029;-74
2023/04/10 01:58:22;;;;;;;8.10;3.47;;;9.50;99.90;;;;;;5044986;28;20040;-73
2023/04/10 02:00:48;;;;;;;5.55;2.95;;;9.60;99.90;;;;;;5045389;28;20445;-73
2023/04/10 02:03:13;;;;;;;7.70;3.58;;;9.60;99.90;;;;;;5045300;28;20505;-73
2023/04/10 02:06:02;;;;;;;6.40;3.00;;;9.60;99.90;;;;;;5034121;28;20033;-73
2023/04/10 02:08:38;;;;;;;6.43;3.08;;;9.50;99.90;;;;;;5021956;28;20049;-73
2023/04/10 02:11:40;;;;;;;5.80;2.60;;;9.50;99.90;;;;;;5049718;28;20037;-73
2023/04/10 02:14:10;;;;;;;7.13;3.17;;;9.50;99.90;;;;;;5034092;28;20600;-73
2023/04/10 02:16:37;;;;;;;5.60;2.97;;;9.50;99.90;;;;;;5049225;28;20033;-73
2023/04/10 02:19:05;;;;;;;6.45;3.03;;;9.60;99.90;;;;;;5037549;28;20128;-73
2023/04/10 02:21:33;;;;;;;7.20;3.05;;;9.50;99.90;;;;;;5049728;28;20116;-72
2023/04/10 02:23:59;;;;;;;6.82;2.88;;;9.50;99.90;;;;;;5037246;28;20029;-73
2023/04/10 02:26:24;;;;;;;7.55;3.03;;;9.40;99.90;;;;;;5049123;28;20025;-73
2023/04/10 02:28:50;;;;;;;7.03;2.80;;;9.50;99.90;;;;;;5037222;28;20044;-73
2023/04/10 02:31:16;;;;;;;4.35;2.45;;;9.50;99.90;;;;;;5059596;28;20045;-74
2023/04/10 02:33:42;;;;;;;5.88;3.00;;;9.50;99.90;;;;;;5059151;28;20118;-73
2023/04/10 02:36:08;;;;;;;4.90;2.53;;;9.50;99.90;;;;;;5050133;28;20041;-73
2023/04/10 02:38:33;;;;;;;5.28;3.10;;;9.50;99.90;;;;;;5039309;28;21448;-73
2023/04/10 02:40:59;;;;;;;6.95;3.22;;;9.50;99.90;;;;;;5038703;28;20033;-73
2023/04/10 02:43:25;;;;;;;6.18;2.80;;;9.50;99.90;;;;;;5050243;28;20535;-73
2023/04/10 02:45:51;;;;;;;7.68;3.15;;;9.50;99.90;;;;;;5049331;28;20025;-73
2023/04/10 02:48:17;;;;;;;4.97;2.28;;;9.40;99.90;;;;;;5039015;28;20037;-73
2023/04/10 02:50:45;;;;;;;5.80;3.00;;;9.50;99.90;;;;;;5038065;28;20120;-73
2023/04/10 02:53:14;;;;;;;5.20;2.42;;;9.50;99.90;;;;;;5048531;28;20037;-72
2023/04/10 02:55:40;;;;;;;7.20;3.20;;;9.40;99.90;;;;;;5034187;28;20043;-72
2023/04/10 02:58:06;;;;;;;5.95;2.92;;;9.40;99.90;;;;;;5038116;28;20033;-71
2023/04/10 03:00:32;;;;;;;5.57;2.97;;;9.40;99.90;;;;;;5038766;28;20037;-73
2023/04/10 03:02:57;;;;;;;4.60;2.50;;;9.30;99.90;;;;;;5038203;28;20483;-74
2023/04/10 03:05:23;;;;;;;5.82;3.00;;;9.40;99.90;;;;;;5049045;28;20026;-73
2023/04/10 03:07:49;;;;;;;6.85;2.83;;;9.30;99.90;;;;;;5048441;28;20041;-73
2023/04/10 03:10:14;;;;;;;6.88;3.03;;;9.30;99.90;;;;;;5045254;28;20041;-73
2023/04/10 03:12:40;;;;;;;5.25;2.85;;;9.30;99.90;;;;;;5030079;28;20524;-73
2023/04/10 03:15:06;;;;;;;6.22;2.78;;;9.30;99.90;;;;;;5048741;28;20645;-71
2023/04/10 03:17:32;;;;;;;7.13;2.83;;;9.30;99.90;;;;;;5048864;28;20063;-72
2023/04/10 03:19:57;;;;;;;4.95;2.50;;;9.30;99.90;;;;;;5047566;28;20032;-73
2023/04/10 03:22:23;;;;;;;5.10;2.47;;;9.30;99.90;;;;;;5048738;28;20065;-73
2023/04/10 03:24:48;;;;;;;7.40;2.80;;;9.30;99.90;;;;;;5048600;28;20693;-73
2023/04/10 03:27:15;;;;;;;4.50;2.70;;;9.30;99.90;;;;;;5033454;28;20033;-73
2023/04/10 03:29:40;;;;;;;5.07;2.67;;;9.30;99.90;;;;;;5055057;28;20498;-73
2023/04/10 03:32:06;;;;;;;4.80;2.50;;;9.30;99.90;;;;;;5054534;28;20029;-72
2023/04/10 03:34:31;;;;;;;5.30;2.45;;;9.30;99.90;;;;;;5032260;28;20037;-73
2023/04/10 03:36:57;;;;;;;7.32;2.17;;;9.30;99.90;;;;;;5050823;28;20037;-73
2023/04/10 03:39:23;;;;;;;6.28;2.90;;;9.30;99.90;;;;;;5049384;28;20037;-73
2023/04/10 03:41:49;;;;;;;6.38;2.40;;;9.30;99.90;;;;;;5056778;28;20044;-73
2023/04/10 03:44:14;;;;;;;4.85;2.40;;;9.30;99.90;;;;;;5049574;28;20036;-72
2023/04/10 03:46:40;;;;;;;6.00;2.80;;;9.30;99.90;;;;;;5034104;28;20567;-73
2023/04/10 03:49:05;;;;;;;7.30;3.10;;;9.30;99.90;;;;;;5032012;28;20033;-73
2023/04/10 03:51:31;;;;;;;5.28;2.63;;;9.30;99.90;;;;;;5031081;28;20044;-73
2023/04/10 03:53:56;;;;;;;5.57;2.45;;;9.30;99.90;;;;;;5047921;28;20093;-73
2023/04/10 03:56:22;;;;;;;5.03;2.40;;;9.30;99.90;;;;;;5033533;28;20399;-73
2023/04/10 03:58:47;;;;;;;5.93;2.20;;;9.20;99.90;;;;;;5036652;28;20052;-73
2023/04/10 04:01:13;;;;;;;5.38;2.55;;;9.20;99.90;;;;;;5047565;28;20086;-73
2023/04/10 04:03:39;;;;;;;5.05;2.72;;;9.20;99.90;;;;;;5047517;28;20514;-72
2023/04/10 04:06:05;;;;;;;5.47;2.58;;;9.20;99.90;;;;;;5047253;28;20029;-73
2023/04/10 04:08:30;;;;;;;5.53;2.63;;;9.20;99.90;;;;;;5031196;28;20040;-72
2023/04/10 04:10:56;;;;;;;4.50;2.20;;;9.20;99.90;;;;;;5047389;28;20029;-73
2023/04/10 04:13:21;;;;;;;6.55;2.75;;;9.20;99.90;;;;;;5047277;28;20033;-73
2023/04/10 04:15:47;;;;;;;5.00;2.90;;;9.20;99.90;;;;;;5048778;28;20029;-73
2023/04/10 04:18:13;;;;;;;5.35;2.83;;;9.20;99.90;;;;;;5047603;28;20036;-72
2023/04/10 04:20:38;;;;;;;4.50;2.00;;;9.20;99.90;;;;;;5047300;28;20120;-73
2023/04/10 04:23:04;;;;;;;6.30;2.42;;;9.20;99.90;;;;;;5032000;28;20051;-73
2023/04/10 04:25:29;;;;;;;7.20;2.90;;;9.30;99.90;;;;;;5035555;28;20028;-73
2023/04/10 04:27:55;;;;;;;6.15;2.72;;;9.20;99.90;;;;;;5059098;28;20043;-72
2023/04/10 04:30:20;;;;;;;10.10;3.33;;;9.20;99.90;;;;;;5061594;28;20120;-72
2023/04/10 04:32:46;;;;;;;5.60;2.30;;;9.10;99.90;;;;;;5050821;28;20048;-72
2023/04/10 04:35:12;;;;;;;5.85;2.95;;;9.10;99.90;;;;;;5048753;28;20063;-72
2023/04/10 04:37:37;;;;;;;5.20;2.83;;;9.10;99.90;;;;;;5050707;28;20091;-73
2023/04/10 04:40:03;;;;;;;4.95;2.50;;;9.00;99.90;;;;;;5047459;28;20040;-73
2023/04/10 04:42:28;;;;;;;5.93;2.55;;;9.00;99.90;;;;;;5031614;28;20094;-72
2023/04/10 04:44:54;;;;;;;14.52;3.85;;;9.00;99.90;;;;;;5048908;28;20116;-73
2023/04/10 04:47:20;;;;;;;5.57;2.75;;;9.00;99.90;;;;;;5047278;28;20128;-73
2023/04/10 04:49:45;;;;;;;5.22;2.50;;;9.00;99.90;;;;;;5046561;28;20059;-73
2023/04/10 04:52:11;;;;;;;5.35;3.00;;;9.00;99.90;;;;;;5046906;28;20037;-73
2023/04/10 04:54:36;;;;;;;5.03;2.65;;;9.00;99.90;;;;;;5032410;28;20064;-73
2023/04/10 04:57:02;;;;;;;7.40;3.38;;;9.00;99.90;;;;;;5047802;28;20041;-72
2023/04/10 04:59:28;;;;;;;6.78;3.25;;;9.00;99.90;;;;;;5036100;28;20742;-72
2023/04/10 05:01:54;;;;;;;10.52;3.55;;;9.00;99.90;;;;;;5048407;28;20127;-73
2023/04/10 05:04:19;;;;;;;5.80;2.83;;;9.00;99.90;;;;;;5031684;28;20033;-72
2023/04/10 05:06:45;;;;;;;5.30;2.88;;;9.00;99.90;;;;;;5045945;28;20045;-73
2023/04/10 05:09:11;;;;;;;9.70;3.17;;;9.00;99.90;;;;;;5046315;28;20029;-72
2023/04/10 05:11:36;;;;;;;5.38;2.67;;;9.00;99.90;;;;;;5045821;28;20049;-73
2023/04/10 05:14:02;;;;;;;6.35;3.15;;;9.00;99.90;;;;;;5042363;28;20589;-73
2023/04/10 05:16:27;;;;;;;7.60;2.70;;;9.00;99.90;;;;;;5046607;28;20028;-73
2023/04/10 05:18:54;;;;;;;6.25;2.67;;;9.00;99.90;;;;;;5046304;28;20132;-73
2023/04/10 05:21:19;;;;;;;6.63;2.83;;;9.00;99.90;;;;;;5045713;28;20029;-72
2023/04/10 05:23:45;;;;;;;8.23;3.60;;;9.00;99.90;;;;;;5052745;28;20036;-72
2023/04/10 05:26:10;;;;;;;5.38;2.70;;;9.00;99.90;;;;;;5044281;28;20043;-73
2023/04/10 05:28:36;;;;;;;6.45;3.58;;;9.00;99.90;;;;;;5047346;28;20809;-74
2023/04/10 05:31:02;;;;;;;8.43;3.33;;;8.90;99.90;;;;;;5046316;28;20037;-74
2023/04/10 05:33:27;;;;;;;5.43;2.63;;;9.00;99.90;;;;;;5046810;28;20037;-71
2023/04/10 05:35:53;;;;;;;5.97;2.92;;;9.00;99.90;;;;;;5045719;28;21462;-73
2023/04/10 05:38:19;;;;;;;7.03;3.45;;;8.90;99.90;;;;;;5032213;28;20041;-73
2023/04/10 05:40:45;;;;;;;7.05;3.58;;;8.90;99.90;;;;;;5045542;28;20029;-73
2023/04/10 05:43:11;;;;;;;7.03;3.67;;;8.90;99.90;;;;;;5045784;28;20033;-73
2023/04/10 05:45:36;;;;;;;6.00;3.00;;;8.90;99.90;;;;;;5032052;28;20060;-72
2023/04/10 05:48:02;;;;;;;7.05;3.08;;;8.90;99.90;;;;;;5047318;28;20491;-73
2023/04/10 05:50:28;;;;;;;6.22;2.75;;;8.90;99.90;;;;;;5047586;28;20387;-72
2023/04/10 05:52:54;;;;;;;6.60;3.10;;;9.00;99.90;;;;;;5045506;28;20056;-73
2023/04/10 05:55:19;;;;;;;7.28;3.30;;;9.00;99.90;;;;;;5045088;28;20161;-73
2023/04/10 05:57:45;;;;;;;8.07;3.67;;;9.10;99.90;;;;;;5045664;28;20482;-73
2023/04/10 06:00:13;;;;;;;6.43;3.20;;;9.10;99.90;;;;;;5046037;28;20040;-72
2023/04/10 06:02:38;;;;;;;6.40;2.90;;;9.10;99.90;;;;;;5047379;28;20037;-74
2023/04/10 06:05:04;;;;;;;8.60;3.78;;;9.10;99.90;;;;;;5043989;28;20029;-73
2023/04/10 06:07:32;;;;;;;6.75;3.20;;;9.20;99.90;;;;;;5043861;28;20025;-73
2023/04/10 06:09:57;;;;;;;7.55;3.10;;;9.20;99.90;;;;;;5047462;28;20027;-73
2023/04/10 06:12:23;;;;;;;8.70;3.88;;;9.30;99.90;;;;;;5031659;28;20029;-73
2023/04/10 06:14:48;;;;;;;7.68;3.15;;;9.40;99.90;;;;;;5046989;28;20056;-73
2023/04/10 06:17:14;;;;;;;9.50;3.83;;;9.40;99.90;;;;;;5036149;28;20051;-73
2023/04/10 06:19:39;;;;;;;7.60;3.35;;;9.40;99.90;;;;;;5046297;28;20417;-74
2023/04/10 06:22:05;;;;;;;7.43;3.67;;;9.40;99.90;;;;;;5053657;28;20029;-73
2023/04/10 06:24:31;;;;;;;5.57;3.05;;;9.40;99.90;;;;;;5051714;28;20224;-73
2023/04/10 06:26:56;;;;;;;5.95;2.78;;;9.50;99.90;;;;;;5045412;28;20486;-73
2023/04/10 06:29:22;;;;;;;7.00;3.35;;;9.50;99.90;;;;;;5045738;28;20931;-73
2023/04/10 06:31:48;;;;;;;8.80;3.28;;;9.60;99.90;;;;;;5045966;28;20033;-73
2023/04/10 06:34:13;;;;;;;7.93;3.65;;;9.50;99.90;;;;;;5045110;28;20041;-72
2023/04/10 06:36:39;;;;;;;5.65;2.75;;;9.70;99.90;;;;;;5048338;28;20037;-73
2023/04/10 06:39:05;;;;;;;8.30;3.17;;;9.70;99.90;;;;;;5034783;28;20041;-73
2023/04/10 06:41:31;;;;;;;5.53;3.10;;;9.70;99.90;;;;;;5045581;28;20072;-72
2023/04/10 06:43:56;;;;;;;6.68;3.13;;;9.70;99.90;;;;;;5045128;28;20072;-74
2023/04/10 06:46:22;;;;;;;4.88;3.00;;;9.80;99.90;;;;;;5034530;28;20033;-73
2023/04/10 06:48:47;;;;;;;9.02;3.70;;;9.80;99.90;;;;;;5047052;28;20580;-72
2023/04/10 06:51:13;;;;;;;6.95;3.50;;;9.90;99.90;;;;;;5032569;28;20070;-73
2023/04/10 06:53:39;;;;;;;7.72;3.78;;;9.90;99.90;;;;;;5037527;28;20502;-73
2023/04/10 06:56:05;;;;;;;6.30;3.10;;;10.00;99.90;;;;;;5048786;28;20490;-73
2023/04/10 06:58:31;;;;;;;6.65;3.60;;;10.00;99.90;;;;;;5038655;28;20041;-73
2023/04/10 07:00:57;;;;;;;6.88;3.22;;;10.10;99.90;;;;;;5048885;28;20691;-73
2023/04/10 07:03:23;;;;;;;7.80;3.45;;;10.20;99.90;;;;;;5037788;28;20076;-73
2023/04/10 07:05:48;;;;;;;7.15;3.58;;;10.30;99.90;;;;;;5048900;28;20041;-74
2023/04/10 07:08:15;;;;;;;5.90;2.63;;;10.40;99.90;;;;;;5037794;28;20043;-74
2023/04/10 07:10:40;;;;;;;5.10;2.50;;;10.50;99.90;;;;;;5038066;28;20517;-76
2023/04/10 07:13:06;;;;;;;6.70;3.33;;;10.60;99.90;;;;;;5049007;28;20025;-73
2023/04/10 07:15:31;;;;;;;5.47;2.85;;;10.70;99.90;;;;;;5051290;28;20112;-73
2023/04/10 07:17:57;;;;;;;5.47;2.80;;;10.70;99.90;;;;;;5048088;28;20044;-73
2023/04/10 07:20:22;;;;;;;6.72;3.22;;;10.80;99.90;;;;;;5059838;28;20033;-73
2023/04/10 07:22:48;;;;;;;6.47;3.17;;;10.90;99.90;;;;;;5045212;28;20398;-72
2023/04/10 07:25:14;;;;;;;6.53;2.75;;;11.00;99.90;;;;;;5048898;28;20251;-70
2023/04/10 07:27:40;;;;;;;5.68;2.83;;;11.10;99.90;;;;;;5037260;28;20033;-73
2023/04/10 07:30:06;;;;;;;5.85;3.03;;;11.20;99.90;;;;;;5047472;28;20048;-71
2023/04/10 07:32:33;;;;;;;6.22;2.92;;;11.40;99.90;;;;;;5037913;28;20028;-73
2023/04/10 07:34:59;;;;;;;5.22;3.10;;;11.60;99.90;;;;;;5046315;28;20063;-73
2023/04/10 07:37:25;;;;;;;5.40;2.63;;;11.70;99.90;;;;;;5047581;28;20558;-73
2023/04/10 07:39:51;;;;;;;5.35;2.70;;;11.80;99.90;;;;;;5045195;28;20037;-73
2023/04/10 07:42:16;;;;;;;4.13;2.47;;;11.90;99.90;;;;;;5027435;28;20041;-71
2023/04/10 07:44:42;;;;;;;4.88;2.70;;;11.90;99.90;;;;;;5045750;28;20033;-73
2023/04/10 07:47:07;;;;;;;5.95;3.35;;;11.90;99.90;;;;;;5044822;28;20128;-72
2023/04/10 07:49:33;;;;;;;5.18;2.72;;;11.90;99.90;;;;;;5048991;28;20116;-73
2023/04/10 07:51:58;;;;;;;5.05;2.95;;;11.90;99.90;;;;;;5045415;28;20039;-73
2023/04/10 07:54:24;;;;;;;6.68;2.28;;;11.90;99.90;;;;;;5046639;28;20037;-73
2023/04/10 07:56:52;;;;;;;5.43;2.92;;;11.90;99.90;;;;;;5027900;28;20041;-73
2023/04/10 07:59:17;;;;;;;5.88;3.08;;;11.90;99.90;;;;;;5027793;28;20063;-73
2023/04/10 08:01:43;;;;;;;4.60;2.33;;;12.00;99.90;;;;;;5044988;28;20072;-72
2023/04/10 08:04:08;;;;;;;4.70;2.80;;;12.00;99.90;;;;;;5046556;28;20830;-71
2023/04/10 08:06:34;;;;;;;5.45;2.53;;;12.10;99.90;;;;;;5054299;28;20517;-72
2023/04/10 08:09:00;;;;;;;4.47;2.53;;;12.20;99.90;;;;;;5051035;28;20406;-73
2023/04/10 08:11:32;;;;;;;5.40;2.83;;;12.30;99.90;;;;;;5029821;28;20559;-71
2023/04/10 08:14:04;;;;;;;5.20;2.70;;;12.40;99.90;;;;;;5035061;28;20082;-73
2023/04/10 08:16:31;;;;;;;4.80;2.33;;;12.50;99.90;;;;;;5057525;28;20052;-73
2023/04/10 08:18:58;;;;;;;4.90;2.58;;;12.60;99.90;;;;;;5034171;28;20041;-72
2023/04/10 08:21:26;;;;;;;4.45;2.70;;;12.60;99.90;;;;;;5024301;28;20039;-73
2023/04/10 08:23:56;;;;;;;4.38;2.38;;;12.70;99.90;;;;;;5026669;28;20116;-72
2023/04/10 08:26:22;;;;;;;5.75;2.60;;;12.60;99.90;;;;;;5043213;28;20044;-73
2023/04/10 08:28:49;;;;;;;5.05;2.70;;;12.60;99.90;;;;;;5044518;28;21458;-73
2023/04/10 08:31:19;;;;;;;4.03;2.08;;;12.60;99.90;;;;;;5027819;28;20028;-73
2023/04/10 08:33:45;;;;;;;4.30;2.23;;;12.70;99.90;;;;;;5028082;28;20045;-72
2023/04/10 08:36:11;;;;;;;4.85;2.42;;;12.70;99.90;;;;;;5029436;28;20048;-72
2023/04/10 08:38:38;;;;;;;5.53;2.90;;;12.70;99.90;;;;;;5026378;28;20583;-72
2023/04/10 08:41:05;;;;;;;4.72;2.40;;;12.60;99.90;;;;;;5044254;28;20139;-73
2023/04/10 08:43:30;;;;;;;3.42;1.92;;;12.50;99.90;;;;;;5025736;28;20045;-72
2023/04/10 08:45:56;;;;;;;4.75;2.65;;;12.60;99.90;;;;;;5026268;28;22160;-73
2023/04/10 08:48:30;;;;;;;6.05;2.83;;;12.50;99.90;;;;;;5045156;28;20037;-73
2023/04/10 08:51:00;;;;;;;5.03;2.50;;;12.40;99.90;;;;;;5042524;28;20040;-72
2023/04/10 08:53:30;;;;;;;6.00;2.92;;;12.40;99.90;;;;;;5044435;28;20044;-73
2023/04/10 08:55:56;;;;;;;5.07;2.55;;;12.40;99.90;;;;;;5022163;28;20072;-73
2023/04/10 08:58:23;;;;;;;6.80;2.53;;;12.50;99.90;;;;;;5030878;28;20061;-73
2023/04/10 09:00:49;;;;;;;6.25;2.75;;;12.60;99.90;;;;;;5044256;28;20040;-74
2023/04/10 09:03:17;;;;;;;6.00;2.47;;;12.60;99.90;;;;;;5044955;28;20132;-73
2023/04/10 09:05:42;;;;;;;6.03;2.90;;;12.50;99.90;;;;;;5041386;28;20451;-73
2023/04/10 09:08:09;;;;;;;5.05;2.63;;;12.50;99.90;;;;;;5027984;28;20114;-73
2023/04/10 09:10:35;;;;;;;5.78;2.92;;;12.50;99.90;;;;;;5045452;28;20033;-72
2023/04/10 09:13:01;;;;;;;4.32;2.60;;;12.60;99.90;;;;;;5047299;28;20366;-72
2023/04/10 09:15:27;;;;;;;5.32;2.63;;;12.60;99.90;;;;;;5055898;28;20060;-71
2023/04/10 09:18:02;;;;;;;6.25;3.17;;;12.60;99.90;;;;;;5048559;28;20131;-72
2023/04/10 09:20:30;;;;;;;3.58;2.20;;;12.70;99.90;;;;;;5044345;28;20048;-73
2023/04/10 09:22:56;;;;;;;4.88;2.40;;;12.70;99.90;;;;;;5042933;28;20028;-73
2023/04/10 09:25:32;;;;;;;3.95;2.35;;;12.80;99.90;;;;;;5043783;28;20059;-73
2023/04/10 09:28:05;;;;;;;4.88;2.20;;;12.90;99.90;;;;;;5026090;28;20037;-73
2023/04/10 09:30:41;;;;;;;6.55;3.00;;;13.00;99.90;;;;;;5027328;28;20402;-73
2023/04/10 09:33:26;;;;;;;6.38;3.22;;;13.00;99.90;;;;;;5042701;28;20024;-72
2023/04/10 09:35:53;;;;;;;6.70;2.63;;;13.00;99.90;;;;;;5043317;28;20036;-73
2023/04/10 09:38:22;;;;;;;6.90;2.72;;;13.10;99.90;;;;;;5043257;28;20037;-74
2023/04/10 09:40:48;;;;;;;4.57;2.40;;;13.20;99.90;;;;;;5042142;28;20041;-71
2023/04/10 09:43:25;;;;;;;5.03;2.72;;;13.40;99.90;;;;;;5044190;28;20082;-76
2023/04/10 09:45:56;;;;;;;7.22;3.10;;;13.50;99.90;;;;;;5029406;28;20043;-75
2023/04/10 09:48:23;;;;;;;4.47;2.75;;;13.60;99.90;;;;;;5044559;28;20037;-75
2023/04/10 09:50:49;;;;;;;4.63;2.45;;;13.70;99.90;;;;;;5045535;28;20039;-74
2023/04/10 09:53:19;;;;;;;5.15;2.95;;;13.80;99.90;;;;;;5043538;28;20048;-74
2023/04/10 09:55:47;;;;;;;4.75;2.65;;;13.90;99.90;;;;;;5023739;28;20232;-75
2023/04/10 09:58:13;;;;;;;5.13;2.67;;;13.80;99.90;;;;;;5026356;28;20033;-74
2023/04/10 10:00:44;;;;;;;6.07;2.88;;;13.80;99.90;;;;;;5027820;28;20120;-74
2023/04/10 10:03:15;;;;;;;6.95;3.15;;;13.80;99.90;;;;;;5026833;28;20490;-74
2023/04/10 10:05:47;;;;;;;6.20;2.60;;;13.90;99.90;;;;;;5029085;28;20032;-73
2023/04/10 10:08:14;;;;;;;6.47;2.45;;;13.90;99.90;;;;;;5027436;28;20124;-74
2023/04/10 10:10:46;;;;;;;4.43;2.75;;;13.90;99.90;;;;;;5047660;28;20029;-75
2023/04/10 10:13:19;;;;;;;5.28;2.58;;;14.00;99.90;;;;;;5054191;28;20113;-74
2023/04/10 10:16:11;;;;;;;4.93;2.50;;;14.00;99.90;;;;;;5044333;28;20127;-74
2023/04/10 10:18:44;;;;;;;4.18;2.22;;;14.00;99.90;;;;;;5029529;28;20037;-74
2023/04/10 10:21:12;;;;;;;4.82;2.38;;;14.10;99.90;;;;;;5047368;28;20044;-76
2023/04/10 10:23:39;;;;;;;3.42;2.00;;;14.30;99.90;;;;;;5047007;28;20045;-76
2023/04/10 10:26:05;;;;;;;4.50;2.50;;;14.30;99.90;;;;;;5046021;28;20044;-76
2023/04/10 10:28:32;;;;;;;5.15;2.75;;;14.30;99.90;;;;;;5051460;28;20029;-76
2023/04/10 10:30:58;;;;;;;4.57;2.63;;;14.30;99.90;;;;;;5050681;28;20037;-75
2023/04/10 10:33:26;;;;;;;6.45;3.10;;;14.40;99.90;;;;;;5047444;28;20161;-75
2023/04/10 10:35:52;;;;;;;4.72;2.70;;;14.50;99.90;;;;;;5029464;28;20498;-74
2023/04/10 10:38:18;;;;;;;3.85;2.20;;;14.50;99.90;;;;;;5030937;28;20048;-75
2023/04/10 10:41:15;;;;;;;3.95;2.22;;;14.60;99.90;;;;;;5049270;28;20029;-74
2023/04/10 10:43:53;;;;;;;5.82;2.33;;;14.70;99.90;;;;;;5046118;28;20502;-74
2023/04/10 10:47:03;;;;;;;4.65;2.15;;;14.90;99.90;;;;;;5047735;28;20128;-75
2023/04/10 10:49:53;;;;;;;4.40;2.25;;;15.00;99.90;;;;;;5029642;28;20033;-75
2023/04/10 10:52:43;;;;;;;5.50;2.58;;;15.10;99.90;;;;;;5033642;28;20322;-74
2023/04/10 10:55:21;;;;;;;3.40;2.33;;;15.20;99.90;;;;;;5052376;28;20106;-75
2023/04/10 10:57:57;;;;;;;7.43;2.15;;;15.20;99.90;;;;;;5028954;28;20041;-75
2023/04/10 11:00:24;;;;;;;5.10;2.70;;;15.20;99.90;;;;;;5033907;28;20025;-75
2023/04/10 11:03:09;;;;;;;4.18;2.00;;;15.30;99.90;;;;;;5037582;28;20536;-73
2023/04/10 11:05:57;;;;;;;5.85;2.70;;;15.30;99.90;;;;;;5049820;28;20072;-75
2023/04/10 11:08:32;;;;;;;6.15;2.20;;;15.50;99.90;;;;;;5048058;28;20063;-75
2023/04/10 11:11:04;;;;;;;4.82;2.42;;;15.50;99.90;;;;;;5044543;28;20044;-75
2023/04/10 11:13:34;;;;;;;4.32;2.35;;;15.70;99.90;;;;;;5057309;28;20432;-76
2023/04/10 11:16:01;;;;;;;5.25;2.60;;;15.80;99.80;;;;;;5031901;28;20503;-75
2023/04/10 11:18:48;;;;;;;4.55;2.40;;;15.90;99.70;;;;;;5029428;28;20098;-74
2023/04/10 11:21:15;;;;;;;4.65;1.95;;;16.00;99.90;;;;;;5044498;28;20033;-75
2023/04/10 11:23:49;;;;;;;4.50;2.20;;;16.10;99.90;;;;;;5029792;28;20040;-76
2023/04/10 11:26:40;;;;;;;3.80;2.17;;;16.30;99.20;;;;;;5046275;28;20556;-75
2023/04/10 11:29:11;;;;;;;;;;;16.30;99.90;;;;;;5031347;28;20060;-76
2023/04/10 11:31:37;;;;;;;6.72;2.40;;;16.60;99.90;;;;;;5026462;28;20591;-76
2023/04/10 11:34:05;;;;;;;4.10;2.10;;;16.90;99.70;;;;;;5028680;28;20116;-75
2023/04/10 11:36:33;;;;;;;4.60;2.15;;;16.90;98.80;;;;;;5032215;28;20401;-76
2023/04/10 11:39:12;;;;;;;4.00;2.05;;;16.90;98.70;;;;;;5046420;28;20040;-74
2023/04/10 11:41:44;;;;;;;5.97;2.28;;;16.80;98.90;;;;;;5047932;28;20587;-76
2023/04/10 11:44:20;;;;;;;3.42;2.05;;;16.80;99.00;;;;;;5037922;28;20036;-77
2023/04/10 11:46:47;;;;;;;4.38;2.25;;;16.90;99.00;;;;;;5045318;28;20033;-76
2023/04/10 11:49:18;;;;;;;16.67;3.70;;;16.80;98.70;;;;;;5048844;28;20098;-75
2023/04/10 11:51:45;;;;;;;9.80;3.35;;;16.80;98.80;;;;;;5047268;28;20025;-75
2023/04/10 11:54:16;;;;;;;5.35;2.88;;;16.80;98.90;;;;;;5047190;28;20429;-75
2023/04/10 11:56:44;;;;;;;8.30;3.47;;;16.80;99.40;;;;;;5035211;28;20044;-76
2023/04/10 11:59:12;;;;;;;8.23;3.10;;;16.80;99.20;;;;;;5047603;28;20047;-75
2023/04/10 12:01:39;;;;;;;6.20;2.45;;;16.80;98.90;;;;;;5043625;28;20486;-76
2023/04/10 12:04:22;;;;;;;3.38;1.85;;;16.80;99.00;;;;;;5047043;28;20429;-75
2023/04/10 12:06:56;;;;;;;3.38;2.00;;;16.70;98.90;;;;;;5034774;28;20487;-75
2023/04/10 12:09:22;;;;;;;6.40;2.78;;;16.60;99.30;;;;;;5038137;28;20091;-76
2023/04/10 12:11:57;;;;;;;5.03;2.17;;;16.60;99.70;;;;;;5058396;28;20028;-76
2023/04/10 12:14:32;;;;;;;2.55;1.48;;;16.60;99.70;;;;;;5058280;28;20033;-76
2023/04/10 12:16:59;;;;;;;3.55;1.75;;;16.60;99.40;;;;;;5040651;28;20518;-75
2023/04/10 12:19:25;;;;;;;2.10;1.50;;;16.50;99.10;;;;;;5037685;28;20102;-75
2023/04/10 12:21:51;;;;;;;3.58;1.45;;;16.40;99.60;;;;;;5037387;28;20029;-75
2023/04/10 12:24:45;;;;;;;2.30;1.40;;;16.30;99.50;;;;;;5037413;28;20123;-76
2023/04/10 12:27:22;;;;;;;2.63;1.63;;;16.20;99.60;;;;;;5042854;28;20041;-75
2023/04/10 12:29:50;;;;;;;5.35;1.80;;;16.20;99.60;;;;;;5047194;28;20059;-75
2023/04/10 12:32:16;;;;;;;4.60;1.65;;;16.20;99.70;;;;;;5046811;28;20041;-74
2023/04/10 12:34:52;;;;;;;3.47;1.55;;;16.10;99.80;;;;;;5047089;28;20520;-76
2023/04/10 12:37:19;;;;;;;3.85;1.45;;;16.10;99.90;;;;;;5028490;28;20562;-76
2023/04/10 12:39:45;;;;;;;2.83;1.75;;;15.90;99.90;;;;;;5037431;28;20036;-76
2023/04/10 12:42:19;;;;;;;3.25;1.80;;;15.90;99.90;;;;;;5048530;28;20513;-75
2023/04/10 12:44:57;;;;;;;2.38;1.20;;;15.80;99.90;;;;;;5048443;28;20486;-75
2023/04/10 12:47:24;;;;;;;3.80;2.00;;;15.70;99.90;;;;;;5046801;28;20567;-75
2023/04/10 12:50:07;;;;;;;3.80;1.33;;;15.80;99.90;;;;;;5048182;28;20039;-76
2023/04/10 12:52:34;;;;;;;3.05;1.38;;;15.60;99.90;;;;;;5037421;28;20028;-75
2023/04/10 12:55:10;;;;;;;2.13;1.23;;;15.60;99.90;;;;;;5046688;28;20052;-76
2023/04/10 12:57:36;;;;;;;3.92;1.58;;;15.60;99.90;;;;;;5042823;28;20059;-75
2023/04/10 13:00:08;;;;;;;2.60;1.50;;;15.60;99.90;;;;;;5040628;28;20033;-75